Time;durP1;ratioP1;P1;durP2;ratioP2;P2;SDS_P1;SDS_P2;PMS_P1;PMS_P2;Temp;Humidity;BMP_temperature;BMP_pressure;BME280_temperature;BME280_humidity;BME280_pressure;Samples;Min_cycle;Max_cycle;Signal;HPM_P1;HPM_P2
2022/07/16 00:03:00;;;;;;;1.57;1.40;;;15.60;1.40;;;17.07;93.05;95756.59;644223;216;31564;-75
2022/07/16 00:05:42;;;;;;;1.95;1.35;;;15.40;1.40;;;17.04;91.79;95755.47;652377;212;31580;-75
2022/07/16 00:08:24;;;;;;;2.95;1.52;;;15.30;1.40;;;16.91;93.29;95759.37;649275;212;32062;-75
2022/07/16 00:11:05;;;;;;;1.80;1.10;;;15.10;1.40;;;16.89;94.20;95760.98;647809;216;31728;-75
2022/07/16 00:13:47;;;;;;;1.60;1.00;;;15.20;1.40;;;16.97;93.60;95762.95;646501;216;31966;-75
2022/07/16 00:16:29;;;;;;;2.25;1.60;;;15.40;1.40;;;16.98;95.28;95753.39;645845;216;42188;-75
2022/07/16 00:19:18;;;;;;;1.50;1.40;;;15.40;1.40;;;17.03;97.74;95749.80;650717;216;31544;-75
2022/07/16 00:22:01;;;;;;;1.40;1.30;;;15.30;1.40;;;16.82;100.00;95749.06;644895;216;31513;-75
2022/07/16 00:24:43;;;;;;;2.20;1.20;;;15.30;1.40;;;16.72;100.00;95750.02;618559;226;31845;-75
2022/07/16 00:27:24;;;;;;;1.30;1.20;;;15.20;1.40;;;16.58;100.00;95749.14;644795;216;31504;-75
2022/07/16 00:30:07;;;;;;;4.95;1.45;;;14.90;1.40;;;16.57;100.00;95744.86;647929;216;31540;-75
2022/07/16 00:32:48;;;;;;;2.45;1.30;;;14.90;1.40;;;16.51;100.00;95744.22;646391;216;31666;-75
2022/07/16 00:35:54;;;;;;;1.60;1.27;;;14.80;1.40;;;16.38;100.00;95750.00;647968;212;42330;-75
2022/07/16 00:38:36;;;;;;;1.67;1.50;;;14.80;1.40;;;16.53;100.00;95748.31;650649;216;31573;-75
2022/07/16 00:41:18;;;;;;;2.10;1.23;;;14.90;1.40;;;16.48;100.00;95742.70;649707;212;31584;-77
2022/07/16 00:44:04;;;;;;;2.10;1.33;;;15.00;1.40;;;16.60;100.00;95744.54;650777;212;31553;-75
2022/07/16 00:46:45;;;;;;;2.45;1.60;;;15.00;1.40;;;16.41;100.00;95746.46;650126;216;31705;-75
2022/07/16 00:49:27;;;;;;;1.30;1.20;;;14.90;1.40;;;16.37;100.00;95742.63;646024;212;31546;-75
2022/07/16 00:52:09;;;;;;;2.58;1.70;;;14.90;1.40;;;16.23;100.00;95744.08;646056;216;31554;-74
2022/07/16 00:54:50;;;;;;;1.62;1.52;;;14.60;1.40;;;16.17;100.00;95744.92;645399;212;31507;-75
2022/07/16 00:57:32;;;;;;;1.80;1.70;;;14.50;1.40;;;16.13;100.00;95745.75;648802;212;31561;-74
2022/07/16 01:03:00;;;;;;;1.65;1.48;;;14.60;1.40;;;16.16;100.00;95742.65;644721;216;31554;-75
2022/07/16 01:05:42;;;;;;;1.50;1.37;;;14.50;1.40;;;16.02;100.00;95746.82;650773;216;31501;-76
2022/07/16 01:08:24;;;;;;;3.80;2.05;;;14.40;1.40;;;16.00;100.00;95747.98;618976;222;32443;-74
2022/07/16 01:11:05;;;;;;;1.95;1.67;;;14.50;1.40;;;15.94;100.00;95750.39;649454;216;31689;-75
2022/07/16 01:13:47;;;;;;;1.40;1.30;;;14.50;1.40;;;16.10;100.00;95751.50;646423;212;31695;-75
2022/07/16 01:16:29;;;;;;;1.70;1.40;;;14.40;1.40;;;16.10;100.00;95747.19;648918;216;31837;-75
2022/07/16 01:19:10;;;;;;;2.53;1.20;;;14.50;1.40;;;16.08;100.00;95754.59;651618;212;31551;-75
2022/07/16 01:21:52;;;;;;;3.92;1.70;;;14.50;1.40;;;16.12;100.00;95755.23;646124;216;31860;-75
2022/07/16 01:24:34;;;;;;;1.20;1.10;;;14.50;1.40;;;16.07;100.00;95759.70;647706;216;31523;-75
2022/07/16 01:27:15;;;;;;;2.25;1.30;;;14.60;1.40;;;16.09;100.00;95756.13;647675;216;31760;-75
2022/07/16 01:29:57;;;;;;;1.20;1.10;;;14.60;1.40;;;16.04;100.00;95753.25;650895;216;31568;-75
2022/07/16 01:32:39;;;;;;;1.70;1.60;;;14.50;1.40;;;15.95;100.00;95754.16;645610;216;31521;-75
2022/07/16 01:35:51;;;;;;;2.47;1.00;;;14.40;1.40;;;15.89;100.00;95760.12;645852;216;31770;-75
2022/07/16 01:38:32;;;;;;;1.92;1.42;;;14.40;1.40;;;15.95;100.00;95762.69;650005;216;31508;-75
2022/07/16 01:41:14;;;;;;;1.77;1.65;;;14.50;1.40;;;15.95;100.00;95759.44;616687;222;31852;-75
2022/07/16 01:43:59;;;;;;;1.30;1.20;;;14.50;1.40;;;15.91;100.00;95761.64;646209;216;31563;-75
2022/07/16 01:46:40;;;;;;;1.40;1.30;;;14.40;1.40;;;15.89;100.00;95760.67;647521;216;31530;-75
2022/07/16 01:49:22;;;;;;;2.22;1.20;;;14.40;1.40;;;15.82;100.00;95762.76;646803;212;31505;-75
2022/07/16 01:52:05;;;;;;;1.45;1.30;;;14.20;1.40;;;15.69;100.00;95760.67;647097;216;32035;-75
2022/07/16 01:54:47;;;;;;;1.57;1.47;;;14.10;1.40;;;15.61;100.00;95757.34;646062;212;31724;-75
2022/07/16 01:57:29;;;;;;;1.37;1.27;;;13.90;1.40;;;15.58;100.00;95756.86;647232;216;31576;-75
2022/07/16 02:00:11;;;;;;;1.60;1.50;;;13.80;1.40;;;15.44;100.00;95754.81;655284;212;32132;-75
2022/07/16 02:02:53;;;;;;;2.27;1.70;;;13.60;1.40;;;15.35;100.00;95755.32;646039;216;32521;-75
2022/07/16 02:05:35;;;;;;;1.95;1.75;;;13.50;1.40;;;15.20;100.00;95757.96;645464;216;31556;-75
2022/07/16 02:08:16;;;;;;;1.80;1.12;;;13.50;1.40;;;15.16;100.00;95752.43;647256;212;32056;-74
2022/07/16 02:10:58;;;;;;;1.83;1.45;;;13.70;1.40;;;15.22;100.00;95755.21;650462;216;32268;-74
2022/07/16 02:13:40;;;;;;;2.03;1.50;;;13.50;1.40;;;15.08;100.00;95759.48;646813;216;31593;-75
2022/07/16 02:16:21;;;;;;;1.27;1.15;;;13.30;1.40;;;14.98;100.00;95764.55;647755;216;31636;-75
2022/07/16 02:19:03;;;;;;;1.10;1.00;;;13.20;1.40;;;14.99;100.00;95761.92;648630;212;31597;-75
2022/07/16 02:21:45;;;;;;;2.33;1.35;;;13.20;1.40;;;14.85;100.00;95760.70;644462;212;31488;-75
2022/07/16 02:24:26;;;;;;;1.70;1.17;;;13.10;1.40;;;14.80;100.00;95762.98;651626;212;31534;-75
2022/07/16 02:27:11;;;;;;;1.50;1.40;;;13.20;1.40;;;14.78;100.00;95759.34;645886;216;31578;-75
2022/07/16 02:29:53;;;;;;;1.92;1.65;;;13.20;1.40;;;14.81;100.00;95760.75;650019;212;31537;-75
2022/07/16 02:32:35;;;;;;;5.10;1.55;;;13.30;1.40;;;14.78;100.00;95765.06;646048;212;31581;-75
2022/07/16 02:35:51;;;;;;;5.12;1.33;;;13.20;1.40;;;14.62;100.00;95764.09;647737;216;31663;-75
2022/07/16 02:38:32;;;;;;;2.10;1.63;;;13.00;1.40;;;14.52;100.00;95762.56;646192;216;31518;-75
2022/07/16 02:41:14;;;;;;;1.37;1.25;;;13.00;1.40;;;14.48;100.00;95768.72;646669;216;31479;-75
2022/07/16 02:43:56;;;;;;;1.52;1.27;;;12.90;1.40;;;14.48;100.00;95769.12;649787;216;31691;-75
2022/07/16 02:46:41;;;;;;;2.60;1.60;;;12.90;1.40;;;14.45;100.00;95771.87;646531;216;31520;-75
2022/07/16 02:49:22;;;;;;;1.50;1.40;;;12.90;1.40;;;14.42;100.00;95768.67;650498;216;32204;-75
2022/07/16 02:52:04;;;;;;;1.52;1.40;;;12.70;1.40;;;14.22;100.00;95766.37;651527;212;31809;-74
2022/07/16 02:54:46;;;;;;;1.87;1.70;;;12.60;1.40;;;14.14;100.00;95765.57;650048;216;31554;-74
2022/07/16 02:57:28;;;;;;;2.20;1.12;;;12.50;1.40;;;14.04;100.00;95771.57;652726;216;31514;-74
2022/07/16 03:00:11;;;;;;;1.42;1.23;;;12.40;1.40;;;13.87;100.00;95770.52;646692;216;31549;-74
2022/07/16 03:02:53;;;;;;;1.40;1.30;;;12.40;1.40;;;13.91;100.00;95773.31;648184;216;31741;-74
2022/07/16 03:05:35;;;;;;;1.50;1.40;;;12.40;1.40;;;13.84;100.00;95770.47;648464;216;31500;-74
2022/07/16 03:08:17;;;;;;;1.67;1.40;;;12.40;1.40;;;13.91;100.00;95772.38;650592;216;32677;-74
2022/07/16 03:10:58;;;;;;;1.20;1.10;;;12.40;1.40;;;13.91;100.00;95774.66;648321;215;31978;-75
2022/07/16 03:13:40;;;;;;;1.55;1.45;;;12.50;1.40;;;13.87;100.00;95778.61;652134;212;31601;-74
2022/07/16 03:16:25;;;;;;;1.98;1.50;;;12.50;1.40;;;13.81;100.00;95782.06;646738;212;31551;-74
2022/07/16 03:19:06;;;;;;;1.70;1.35;;;12.40;1.40;;;13.93;100.00;95784.97;649434;216;31540;-74
2022/07/16 03:21:48;;;;;;;1.67;1.37;;;12.40;1.40;;;13.82;100.00;95784.70;650647;212;31845;-74
2022/07/16 03:24:30;;;;;;;2.03;1.60;;;12.30;1.40;;;13.75;100.00;95783.77;646652;212;32041;-75
2022/07/16 03:27:12;;;;;;;1.48;1.37;;;12.20;1.40;;;13.54;100.00;95782.92;651360;212;31648;-75
2022/07/16 03:29:56;;;;;;;3.78;1.42;;;12.00;1.40;;;13.58;100.00;95788.36;647644;216;42283;-75
2022/07/16 03:32:38;;;;;;;1.00;0.90;;;12.00;1.40;;;13.52;100.00;95785.61;651110;216;31503;-75
2022/07/16 03:35:51;;;;;;;1.35;1.25;;;12.10;1.40;;;13.56;100.00;95784.40;646985;212;31814;-75
2022/07/16 03:41:22;;;;;;;1.55;1.27;;;12.20;1.40;;;13.69;100.00;95787.75;644581;216;31679;-75
2022/07/16 03:44:04;;;;;;;1.33;0.93;;;12.20;1.40;;;14.00;100.00;95791.39;647361;213;31557;-75
2022/07/16 03:46:46;;;;;;;1.58;1.30;;;12.40;1.40;;;13.92;100.00;95791.25;621040;226;31896;-75
2022/07/16 03:49:30;;;;;;;1.90;1.55;;;12.50;1.40;;;13.94;100.00;95787.57;648231;216;31556;-75
2022/07/16 03:52:12;;;;;;;2.30;1.65;;;12.50;1.40;;;14.01;100.00;95793.58;616028;226;32011;-75
2022/07/16 03:54:57;;;;;;;1.40;1.30;;;12.50;1.40;;;14.07;100.00;95797.34;645897;216;42177;-75
2022/07/16 03:57:38;;;;;;;3.40;1.80;;;12.60;1.40;;;14.14;100.00;95800.77;651829;216;31506;-74
2022/07/16 04:00:20;;;;;;;1.67;1.33;;;12.80;1.40;;;14.20;100.00;95801.01;648093;216;32663;-75
2022/07/16 04:03:02;;;;;;;1.80;1.60;;;12.80;1.40;;;14.26;100.00;95803.56;621059;222;32403;-75
2022/07/16 04:05:44;;;;;;;1.30;1.20;;;12.90;1.40;;;14.32;100.00;95805.69;654189;216;31743;-75
2022/07/16 04:08:28;;;;;;;1.67;1.58;;;13.00;1.40;;;14.39;100.00;95807.86;648333;216;31493;-74
2022/07/16 04:11:10;;;;;;;1.40;1.30;;;12.90;1.40;;;14.56;100.00;95813.24;647204;212;31564;-75
2022/07/16 04:13:52;;;;;;;1.50;1.40;;;13.00;1.40;;;14.45;100.00;95810.51;619871;222;43040;-75
2022/07/16 04:16:33;;;;;;;1.85;1.70;;;13.00;1.40;;;14.40;100.00;95808.37;631750;217;31677;-75
2022/07/16 04:19:15;;;;;;;6.37;1.10;;;13.00;1.40;;;14.42;100.00;95811.06;653032;216;31519;-75
2022/07/16 04:21:57;;;;;;;4.18;2.10;;;12.90;1.40;;;14.47;100.00;95812.56;646402;216;32159;-76
2022/07/16 04:24:41;;;;;;;2.78;2.30;;;12.90;1.40;;;14.50;100.00;95811.73;651677;216;31913;-75
2022/07/16 04:27:23;;;;;;;1.83;1.62;;;12.80;1.40;;;14.38;100.00;95815.48;653878;212;31565;-74
2022/07/16 04:30:06;;;;;;;1.75;1.02;;;12.90;1.40;;;14.48;100.00;95818.88;647330;216;32077;-75
2022/07/16 04:32:47;;;;;;;1.90;1.75;;;13.00;1.40;;;14.62;100.00;95818.36;651289;216;31820;-74
2022/07/16 04:35:52;;;;;;;1.37;1.20;;;13.10;1.40;;;14.66;100.00;95816.09;650519;216;31605;-74
2022/07/16 04:38:33;;;;;;;1.55;1.45;;;13.20;1.40;;;14.74;100.00;95822.75;647670;216;31565;-74
2022/07/16 04:41:17;;;;;;;1.70;1.60;;;13.30;1.40;;;14.79;100.00;95823.35;647426;216;31549;-75
2022/07/16 04:43:58;;;;;;;2.65;1.50;;;13.30;1.40;;;14.79;100.00;95823.47;648829;216;31555;-74
2022/07/16 04:46:43;;;;;;;4.28;1.70;;;13.40;1.40;;;14.81;100.00;95827.58;646968;212;31638;-75
2022/07/16 04:49:25;;;;;;;2.00;1.80;;;13.50;1.40;;;14.89;100.00;95823.59;652345;212;31501;-75
2022/07/16 04:52:06;;;;;;;1.87;1.50;;;13.50;1.40;;;14.91;100.00;95827.41;648649;212;32080;-75
2022/07/16 04:54:48;;;;;;;2.53;2.25;;;13.50;1.40;;;14.99;100.00;95827.91;619176;222;42720;-75
2022/07/16 04:57:30;;;;;;;2.95;1.70;;;13.50;1.40;;;15.05;100.00;95830.39;642643;216;31898;-75
2022/07/16 05:00:12;;;;;;;1.45;1.30;;;13.60;1.40;;;15.06;100.00;95832.99;643077;216;31844;-74
2022/07/16 05:05:29;;;;;;;3.75;2.33;;;13.90;1.40;;;15.25;100.00;95837.37;619122;222;31886;-75
2022/07/16 05:08:13;;;;;;;1.77;1.67;;;14.00;1.40;;;15.42;100.00;95834.71;649518;212;31513;-74
2022/07/16 05:10:55;;;;;;;2.42;1.80;;;14.00;1.40;;;15.49;100.00;95839.75;646766;212;31511;-74
2022/07/16 05:13:37;;;;;;;2.08;1.73;;;14.10;1.40;;;15.55;100.00;95840.12;651202;212;31522;-75
2022/07/16 05:18:53;;;;;;;2.73;1.80;;;14.30;1.40;;;15.77;100.00;95832.16;648483;216;31639;-75
2022/07/16 05:21:37;;;;;;;2.60;1.90;;;14.40;1.40;;;15.83;100.00;95833.93;645640;212;32200;-75
2022/07/16 05:24:18;;;;;;;2.40;1.80;;;14.50;1.40;;;15.93;100.00;95834.23;647161;216;32295;-75
2022/07/16 05:27:00;;;;;;;2.85;1.40;;;14.70;1.40;;;15.98;100.00;95836.00;649603;216;31649;-75
2022/07/16 05:29:42;;;;;;;1.85;1.60;;;14.70;1.40;;;16.11;100.00;95833.37;646826;212;32124;-75
2022/07/16 05:32:24;;;;;;;1.60;1.50;;;14.90;1.40;;;16.23;100.00;95838.64;646044;216;31811;-75
2022/07/16 05:35:51;;;;;;;1.87;1.77;;;15.00;1.40;;;16.27;100.00;95831.86;646887;216;31562;-75
2022/07/16 05:38:33;;;;;;;2.00;1.65;;;15.20;1.40;;;16.36;100.00;95829.81;643768;212;31769;-75
2022/07/16 05:41:15;;;;;;;1.60;1.50;;;15.30;1.40;;;16.50;100.00;95830.72;624274;225;31879;-75
2022/07/16 05:43:59;;;;;;;3.50;1.70;;;15.40;1.40;;;16.60;100.00;95836.06;622515;226;32062;-75
2022/07/16 05:46:41;;;;;;;1.90;1.70;;;15.50;1.40;;;16.64;100.00;95840.70;645082;216;31733;-75
2022/07/16 05:49:23;;;;;;;1.55;1.45;;;15.60;1.40;;;16.85;100.00;95842.28;649197;216;31529;-75
2022/07/16 05:52:07;;;;;;;1.40;1.30;;;15.80;1.40;;;16.91;100.00;95838.12;617846;226;31904;-74
2022/07/16 05:54:49;;;;;;;2.50;1.70;;;15.80;1.40;;;17.00;100.00;95838.72;622073;225;31917;-75
2022/07/16 05:57:31;;;;;;;4.60;2.08;;;15.90;1.40;;;17.07;100.00;95842.63;647903;212;31578;-74
2022/07/16 06:00:13;;;;;;;1.67;1.58;;;16.00;1.40;;;17.20;100.00;95838.72;645883;216;31527;-75
2022/07/16 06:05:28;;;;;;;1.50;1.40;;;16.10;1.40;;;17.41;99.82;95848.63;650875;212;31568;-75
2022/07/16 06:08:11;;;;;;;3.10;1.77;;;16.20;1.40;;;17.65;100.00;95842.83;647892;212;31515;-75
2022/07/16 06:10:52;;;;;;;2.17;1.67;;;16.20;1.40;;;17.74;100.00;95837.02;646909;216;31625;-75
2022/07/16 06:13:34;;;;;;;3.17;1.60;;;16.30;1.40;;;17.80;100.00;95838.47;646308;212;32014;-76
2022/07/16 06:16:19;;;;;;;3.50;1.70;;;16.50;1.40;;;17.89;100.00;95839.74;650977;216;42765;-74
2022/07/16 06:19:00;;;;;;;2.42;1.90;;;16.50;1.40;;;18.10;100.00;95842.52;620220;226;32238;-75
2022/07/16 06:21:42;;;;;;;3.25;1.85;;;16.70;1.40;;;18.15;99.98;95848.53;650152;216;42418;-75
2022/07/16 06:24:24;;;;;;;1.95;1.40;;;16.60;1.40;;;18.34;100.00;95847.03;647906;212;31510;-75
2022/07/16 06:28:51;;;;;;;1.30;1.20;;;16.90;1.40;;;18.53;96.87;95851.91;618219;226;32046;-75
2022/07/16 06:31:33;;;;;;;1.27;1.17;;;17.00;1.40;;;18.55;95.36;95852.41;646244;216;31771;-75
2022/07/16 06:35:53;;;;;;;1.62;1.52;;;17.20;1.40;;;18.56;92.96;95853.81;642391;217;31554;-75
2022/07/16 06:38:38;;;;;;;1.20;1.05;;;17.20;1.40;;;18.85;92.52;95858.30;620195;222;31874;-75
2022/07/16 06:41:19;;;;;;;1.40;1.30;;;17.40;1.40;;;18.95;92.59;95851.98;618725;226;31865;-74
2022/07/16 06:44:04;;;;;;;1.73;1.62;;;17.50;1.40;;;18.95;93.85;95855.16;648690;216;31529;-76
2022/07/16 06:46:46;;;;;;;1.60;1.50;;;17.40;1.40;;;18.51;95.23;95853.66;645935;216;31724;-76
2022/07/16 06:49:27;;;;;;;1.50;1.40;;;16.60;1.40;;;17.91;100.00;95862.20;654785;216;31531;-75
2022/07/16 06:52:09;;;;;;;1.40;1.10;;;15.30;1.40;;;17.54;100.00;95860.77;645250;212;31534;-76
2022/07/16 06:54:57;;;;;;;1.30;1.20;;;15.10;1.40;;;17.05;100.00;95861.11;634401;220;42403;-78
2022/07/16 06:57:45;;;;;;;1.90;1.30;;;15.60;1.40;;;16.94;100.00;95862.93;649685;216;31613;-75
2022/07/16 07:00:29;;;;;;;2.08;1.30;;;15.40;1.40;;;16.84;100.00;95861.89;648890;212;31551;-75
2022/07/16 07:03:11;;;;;;;1.60;1.40;;;15.70;1.40;;;17.17;100.00;95867.25;648242;212;31519;-75
2022/07/16 07:05:56;;;;;;;3.42;1.40;;;16.00;1.40;;;17.15;100.00;95867.97;616229;222;32117;-74
2022/07/16 07:08:37;;;;;;;2.00;1.23;;;15.90;1.40;;;17.24;100.00;95866.19;647046;216;31621;-75
2022/07/16 07:11:21;;;;;;;1.40;1.30;;;16.50;1.40;;;17.37;100.00;95862.92;651989;212;31634;-78
2022/07/16 07:14:09;;;;;;;1.50;1.40;;;17.10;1.40;;;17.65;100.00;95854.47;645333;216;31513;-75
2022/07/16 07:16:52;;;;;;;1.77;1.20;;;17.90;1.40;;;17.94;97.17;95855.34;646208;216;31603;-74
2022/07/16 07:19:34;;;;;;;1.42;1.33;;;18.20;1.40;;;18.30;94.92;95855.61;650814;216;31530;-75
2022/07/16 07:22:16;;;;;;;1.25;1.15;;;18.50;1.40;;;18.44;92.23;95853.86;647591;216;31507;-76
2022/07/16 07:24:58;;;;;;;2.40;1.50;;;18.50;1.40;;;18.69;88.53;95858.20;651037;216;31539;-74
2022/07/16 07:30:14;;;;;;;2.87;1.95;;;18.50;1.40;;;19.34;89.18;95860.14;647771;216;31511;-76
2022/07/16 07:32:55;;;;;;;1.90;1.70;;;18.70;1.40;;;19.66;87.88;95859.36;645502;216;31515;-74
2022/07/16 07:35:51;;;;;;;3.17;1.00;;;19.00;1.40;;;19.87;84.43;95859.31;649834;216;31573;-75
2022/07/16 07:38:39;;;;;;;2.20;1.00;;;19.10;1.40;;;20.05;80.10;95855.17;645936;212;42574;-76
2022/07/16 07:41:22;;;;;;;1.50;1.20;;;19.30;1.40;;;20.26;83.11;95857.73;650757;216;42219;-74
2022/07/16 07:44:03;;;;;;;1.50;1.40;;;19.30;1.40;;;20.43;82.86;95848.84;647059;216;42128;-74
2022/07/16 07:46:45;;;;;;;1.85;1.30;;;19.50;1.40;;;20.59;82.21;95848.45;646811;216;32036;-74
2022/07/16 07:49:27;;;;;;;1.70;1.60;;;19.60;1.40;;;20.72;76.79;95852.67;648363;216;31562;-74
2022/07/16 07:52:09;;;;;;;1.70;1.20;;;19.70;1.40;;;20.90;77.75;95848.63;651277;216;31475;-74
2022/07/16 07:54:51;;;;;;;3.90;1.50;;;19.70;1.40;;;21.13;76.94;95846.41;653482;216;32268;-75
2022/07/16 07:57:32;;;;;;;2.30;1.67;;;20.00;1.40;;;21.36;76.45;95843.33;648248;216;31628;-74
2022/07/16 08:00:15;;;;;;;1.95;1.27;;;20.10;1.40;;;21.28;73.80;95846.41;647490;216;32132;-74
2022/07/16 08:02:56;;;;;;;1.35;1.20;;;20.00;1.40;;;21.26;74.38;95850.19;646389;216;31691;-75
2022/07/16 08:05:37;;;;;;;1.90;1.60;;;20.00;1.40;;;21.27;71.56;95849.61;623475;226;31873;-75
2022/07/16 08:08:19;;;;;;;1.50;1.20;;;19.80;1.40;;;21.54;73.62;95849.48;643747;216;31644;-75
2022/07/16 08:11:04;;;;;;;4.20;1.70;;;20.40;1.40;;;21.82;73.32;95848.70;647843;216;31558;-75
2022/07/16 08:13:45;;;;;;;1.60;1.45;;;20.60;1.40;;;22.06;72.21;95843.02;646690;216;31758;-75
2022/07/16 08:16:27;;;;;;;2.50;1.60;;;20.80;1.40;;;21.98;69.83;95846.35;643988;212;31568;-74
2022/07/16 08:19:12;;;;;;;2.77;1.20;;;20.60;1.40;;;22.05;72.22;95849.11;649768;216;31570;-74
2022/07/16 08:21:53;;;;;;;2.10;1.80;;;20.80;1.40;;;21.88;68.99;95853.09;651310;216;31524;-75
2022/07/16 08:27:22;;;;;;;2.50;1.12;;;20.50;1.40;;;21.91;68.87;95855.69;625972;225;31938;-74
2022/07/16 08:30:08;;;;;;;4.65;1.90;;;20.70;1.40;;;22.24;68.47;95854.97;644374;212;31570;-75
2022/07/16 08:32:49;;;;;;;1.70;1.60;;;20.90;1.40;;;22.20;66.86;95857.53;647153;212;31880;-76
2022/07/16 08:35:50;;;;;;;2.70;1.70;;;20.90;1.40;;;22.23;66.76;95853.66;648494;216;31591;-75
2022/07/16 08:38:32;;;;;;;1.52;1.42;;;21.10;1.40;;;22.21;67.60;95851.11;653478;216;32135;-75
2022/07/16 08:43:51;;;;;;;1.95;1.80;;;21.20;1.40;;;22.45;63.58;95848.63;648982;215;32134;-75
2022/07/16 08:46:33;;;;;;;1.70;1.30;;;21.50;1.40;;;22.77;65.61;95853.14;645493;216;31523;-74
2022/07/16 08:49:14;;;;;;;1.30;1.20;;;21.50;1.40;;;22.73;64.29;95853.47;648036;212;31576;-75
2022/07/16 08:51:56;;;;;;;1.70;1.60;;;21.40;1.40;;;22.51;64.59;95857.56;647124;216;32197;-74
2022/07/16 08:54:38;;;;;;;1.83;1.50;;;21.50;1.40;;;22.63;63.61;95858.67;646694;216;32103;-74
2022/07/16 08:57:20;;;;;;;3.12;1.58;;;21.60;1.40;;;22.61;61.43;95859.43;647847;216;31648;-74
2022/07/16 09:00:02;;;;;;;1.42;1.33;;;21.60;1.40;;;22.97;61.21;95857.89;649554;216;32203;-75
2022/07/16 09:02:43;;;;;;;3.03;1.50;;;21.70;1.40;;;23.37;59.71;95849.72;643784;216;31936;-74
2022/07/16 09:05:28;;;;;;;2.80;1.70;;;22.10;1.40;;;23.60;59.49;95853.41;642175;216;31692;-74
2022/07/16 09:08:09;;;;;;;1.90;1.42;;;22.30;1.40;;;23.84;59.93;95849.86;653118;216;31499;-75
2022/07/16 09:10:51;;;;;;;1.35;1.25;;;22.60;1.40;;;23.77;59.10;95852.13;648407;216;31559;-76
2022/07/16 09:13:33;;;;;;;2.53;1.50;;;22.40;1.40;;;23.64;59.82;95856.62;645995;212;32165;-74
2022/07/16 09:16:14;;;;;;;2.30;1.17;;;22.50;1.40;;;23.58;59.31;95858.48;646305;216;31609;-74
2022/07/16 09:19:04;;;;;;;2.00;1.80;;;22.60;1.40;;;24.60;62.62;95850.02;646176;216;31602;-75
2022/07/16 09:21:58;;;;;;;1.40;1.30;;;23.50;1.40;;;24.58;56.84;95849.47;622603;225;32459;-74
2022/07/16 09:24:44;;;;;;;2.37;1.40;;;23.10;1.40;;;25.37;56.04;95846.11;649272;216;31609;-75
2022/07/16 09:27:26;;;;;;;2.65;1.27;;;24.00;1.40;;;25.78;53.39;95845.06;645107;216;31870;-75
2022/07/16 09:30:08;;;;;;;1.83;1.55;;;24.80;1.40;;;26.14;49.39;95843.94;646083;216;31533;-74
2022/07/16 09:32:53;;;;;;;2.00;1.60;;;26.50;1.40;;;26.43;49.43;95842.73;647159;216;42329;-75
2022/07/16 09:38:25;;;;;;;3.78;1.60;;;27.60;1.40;;;26.92;48.01;95841.91;644191;216;31592;-75
2022/07/16 09:41:13;;;;;;;2.60;1.60;;;26.50;1.40;;;27.67;46.41;95832.61;646279;216;32100;-75
2022/07/16 09:43:52;;;;;;;2.00;1.27;;;27.70;1.40;;;29.65;48.08;95833.85;647292;214;32234;-74
2022/07/16 09:46:34;;;;;;;2.50;2.30;;;29.90;1.40;;;29.35;44.65;95839.00;649534;216;31729;-74
2022/07/16 09:49:19;;;;;;;2.92;1.60;;;29.30;1.40;;;30.73;41.93;95830.41;646570;216;31559;-75
2022/07/16 09:52:05;;;;;;;1.50;1.40;;;29.40;1.40;;;32.32;45.43;95826.42;643207;217;32372;-76
2022/07/16 09:54:46;;;;;;;3.90;1.80;;;30.60;1.40;;;32.79;38.41;95826.50;677882;208;31398;-74
2022/07/16 09:57:28;;;;;;;2.12;1.80;;;30.30;1.40;;;33.49;39.97;95828.57;647503;216;42169;-74
2022/07/16 10:00:10;;;;;;;1.70;1.60;;;30.90;1.40;;;31.79;37.85;95826.52;623358;226;32153;-75
2022/07/16 10:02:52;;;;;;;2.60;1.50;;;30.40;1.40;;;31.59;37.36;95825.03;620893;226;32412;-75
2022/07/16 10:05:35;;;;;;;2.40;1.60;;;29.20;1.40;;;29.97;38.67;95822.52;647112;216;31687;-75
2022/07/16 10:08:20;;;;;;;2.08;1.60;;;28.10;1.40;;;30.09;39.56;95824.08;647631;216;31565;-77
2022/07/16 10:11:03;;;;;;;1.70;1.35;;;28.40;1.40;;;31.83;38.03;95817.33;646571;216;31577;-75
2022/07/16 10:13:44;;;;;;;1.87;1.67;;;28.70;1.40;;;31.94;38.88;95820.27;646706;216;31656;-75
2022/07/16 10:19:10;;;;;;;1.70;1.52;;;29.90;1.40;;;33.61;38.66;95818.30;646742;216;31623;-75
2022/07/16 10:22:31;;;;;;;1.80;1.70;;;31.00;1.40;;;35.44;36.26;95813.83;616718;222;32048;-75
2022/07/16 10:25:19;;;;;;;2.80;1.83;;;32.50;1.40;;;35.93;32.47;95801.57;616916;226;32186;-76
2022/07/16 10:28:01;;;;;;;2.53;1.80;;;30.80;1.40;;;33.39;35.33;95813.22;647228;216;31888;-75
2022/07/16 10:30:49;;;;;;;1.87;1.77;;;30.80;1.40;;;32.14;35.06;95822.75;649795;216;31564;-78
2022/07/16 10:36:04;;;;;;;2.65;1.85;;;29.10;1.40;;;34.15;34.29;95819.33;648023;216;31820;-78
2022/07/16 10:39:03;;;;;;;2.33;1.77;;;29.90;1.40;;;34.40;33.42;95810.67;649839;216;31898;-74
2022/07/16 10:41:50;;;;;;;1.70;1.58;;;30.20;1.40;;;33.08;33.55;95818.12;649723;216;31752;-75
2022/07/16 10:44:43;;;;;;;1.80;1.70;;;30.10;1.40;;;32.96;34.00;95814.72;645531;216;31578;-74
2022/07/16 10:47:42;;;;;;;2.22;2.03;;;30.40;1.40;;;34.33;33.12;95802.65;645780;216;31736;-77
2022/07/16 10:50:25;;;;;;;5.18;1.70;;;31.70;1.40;;;34.07;31.82;95805.88;620198;226;33236;-75
2022/07/16 10:53:10;;;;;;;2.90;1.55;;;30.80;1.40;;;35.15;31.78;95799.48;641697;216;31633;-75
2022/07/16 10:55:52;;;;;;;2.70;1.85;;;31.20;1.40;;;36.07;30.46;95793.52;651877;216;31545;-75
2022/07/16 10:58:34;;;;;;;2.03;1.80;;;31.70;1.40;;;38.28;31.31;95795.92;653933;216;31529;-75
2022/07/16 11:01:16;;;;;;;1.50;1.40;;;33.10;1.40;;;34.33;29.35;95802.93;653296;216;32281;-74
2022/07/16 11:04:02;;;;;;;1.55;1.45;;;29.60;1.40;;;32.48;32.09;95809.05;647473;212;31555;-76
2022/07/16 11:06:42;;;;;;;1.85;1.75;;;28.20;1.40;;;31.19;33.17;95806.70;644580;212;31760;-76
2022/07/16 11:09:24;;;;;;;2.20;1.50;;;28.50;1.40;;;32.06;33.01;95810.03;646676;212;31545;-74
2022/07/16 11:12:06;;;;;;;1.80;1.70;;;28.50;1.40;;;32.10;31.60;95805.16;650133;212;31677;-75
2022/07/16 11:14:48;;;;;;;1.40;1.23;;;29.10;1.40;;;34.08;31.94;95795.99;645479;216;31572;-75
2022/07/16 11:17:30;;;;;;;1.58;1.40;;;30.20;1.40;;;35.57;29.70;95796.02;646901;216;31646;-75
2022/07/16 11:20:11;;;;;;;1.62;1.30;;;30.90;1.40;;;34.78;30.00;95793.95;647677;216;31558;-74
2022/07/16 11:22:53;;;;;;;3.20;1.50;;;31.10;1.40;;;33.58;30.37;95803.47;648213;216;31527;-74
2022/07/16 11:25:35;;;;;;;1.90;1.70;;;29.50;1.40;;;33.03;32.15;95805.03;648225;212;31844;-76
2022/07/16 11:28:19;;;;;;;3.10;1.30;;;29.90;1.40;;;31.59;32.01;95805.19;644516;212;31556;-75
2022/07/16 11:31:04;;;;;;;1.62;1.52;;;28.90;1.40;;;31.57;31.71;95811.50;650241;216;31575;-74
2022/07/16 11:36:02;;;;;;;1.73;1.62;;;29.70;1.40;;;33.92;31.03;95803.39;624452;226;32718;-75
2022/07/16 11:38:44;;;;;;;1.87;1.70;;;29.80;1.40;;;35.48;30.27;95789.55;643991;216;42328;-75
2022/07/16 11:41:32;;;;;;;1.50;1.40;;;31.20;1.40;;;34.66;31.15;95788.24;647961;216;31536;-77
2022/07/16 11:44:23;;;;;;;1.70;1.60;;;30.50;1.40;;;36.25;29.42;95795.28;618860;226;32034;-75
2022/07/16 11:47:11;;;;;;;2.33;1.60;;;30.30;1.40;;;34.92;29.75;95798.88;647381;216;31592;-77
2022/07/16 11:49:53;;;;;;;1.62;1.50;;;30.00;1.40;;;33.32;30.94;95795.39;643761;212;31518;-76
2022/07/16 11:52:41;;;;;;;1.77;1.67;;;29.40;1.40;;;33.45;29.47;95810.19;642816;212;31876;-74
2022/07/16 11:55:22;;;;;;;2.35;1.20;;;29.10;1.40;;;34.39;29.33;95798.25;646359;216;42199;-76
2022/07/16 11:58:11;;;;;;;5.15;1.70;;;30.40;1.40;;;35.27;29.24;95795.53;619344;226;32074;-76
2022/07/16 12:00:58;;;;;;;1.62;1.52;;;30.60;1.40;;;35.77;30.81;95797.80;649876;216;32228;-75
2022/07/16 12:03:40;;;;;;;1.60;1.50;;;30.80;1.40;;;37.02;29.08;95793.70;650693;216;31669;-74
2022/07/16 12:06:25;;;;;;;2.35;1.55;;;31.40;1.40;;;37.09;27.75;95797.80;647383;216;31494;-74
2022/07/16 12:09:06;;;;;;;4.55;1.80;;;31.30;1.40;;;33.60;29.46;95808.70;649282;216;31561;-75